KOPL

Details ICAO KOPL
Name ST LANDRY PARISH AHART FLD
Region United States
Timezone America/Chicago (UTC-5.0)
Plans Departing 2
Arriving 3
Stats Elevation 75 ft / 23 m (AMSL)
Location 30.557203° -92.099612°
Runways 3
Magnetic Variation 0.374° E
Sunrise 2018-05-22 11:11:29 UTC / 2018-05-22 06:11:29 Local
Sunset 2018-05-23 01:01:33 UTC / 2018-05-22 20:01:33 Local
Advertisement - Login to hide

Runways

ID Width Length Bearing (true) Bearing (mag) Surface Threshold Offset Overrun Length
05 100 ft / 30 m 4,049 ft / 1,234 m 60.03° 59.66° Concrete 165 ft / 50 m 0 ft / 0 m
11 100 ft / 30 m 4,516 ft / 1,377 m 119.59° 119.22° Concrete 0 ft / 0 m 0 ft / 0 m
18 100 ft / 30 m 5,868 ft / 1,789 m 180.15° 179.78° Concrete 150 ft / 46 m 0 ft / 0 m
23 100 ft / 30 m 4,049 ft / 1,234 m 240.03° 239.66° Concrete 169 ft / 52 m 0 ft / 0 m
29 100 ft / 30 m 4,516 ft / 1,377 m 299.59° 299.22° Concrete 0 ft / 0 m 0 ft / 0 m
36 100 ft / 30 m 5,868 ft / 1,789 m 0.15° 359.78° Concrete 789 ft / 240 m 0 ft / 0 m

Map

Weather


0- 5 10 15 20 25 30 35+ Temperature / ° C

Clouds and Precipitation
Forecast for 2018-05-23 00:00 UTC. Updated 3 hours ago

Ground ~20,000 ft ~40,000 ft Winds

METAR

KOPL 230155Z AUTO 19003KT 10SM OVC100 28/21 A2998 RMK AO2 LTG DSNT N T02750208

TAF

Not found

Frequencies

Unicom 123.00 MHz CTAF/UNICOM
Approach 128.70 MHz LAFAYETTE APP/DEP
Warning: Do not use this data for real-world aviation or navigation. No guarantee of current accuracy is given.